Time;durP1;ratioP1;P1;durP2;ratioP2;P2;SDS_P1;SDS_P2;PMS_P1;PMS_P2;Temp;Humidity;BMP_temperature;BMP_pressure;BME280_temperature;BME280_humidity;BME280_pressure;Samples;Min_cycle;Max_cycle;Signal;HPM_P1;HPM_P2
2022/10/31 00:00:19;;;;;;;;;;;;;;;14.26;76.01;97343.09;30002;983;1886;-58
2022/10/31 00:00:50;;;;;;;;;;;;;;;14.26;76.08;97343.09;30002;983;1881;-59
2022/10/31 00:01:28;;;;;;;;;;;;;;;14.27;76.33;97341.16;30002;983;1872;-59
2022/10/31 00:02:04;;;;;;;;;;;;;;;14.26;75.86;97340.37;30002;982;1859;-58
2022/10/31 00:02:34;;;;;;;;;;;;;;;14.26;76.08;97343.09;30002;982;1885;-69
2022/10/31 00:03:05;;;;;;;;;;;;;;;14.26;76.31;97337.62;30002;982;1881;-58
2022/10/31 00:03:37;;;;;;;;;;;;;;;14.26;76.24;97339.56;30002;982;1886;-59
2022/10/31 00:04:08;;;;;;;;;;;;;;;14.27;76.00;97349.34;30002;982;1882;-58
2022/10/31 00:04:42;;;;;;;;;;;;;;;14.26;76.09;97345.00;30002;983;1885;-58
2022/10/31 00:05:13;;;;;;;;;;;;;;;14.27;76.31;97350.16;30002;983;1880;-58
2022/10/31 00:05:48;;;;;;;;;;;;;;;14.26;76.23;97339.56;30002;983;1885;-58
2022/10/31 00:06:20;;;;;;;;;;;;;;;14.27;76.32;97338.44;30002;983;1881;-58
2022/10/31 00:06:51;;;;;;;;;;;;;;;14.27;76.25;97343.91;30002;983;1885;-58
2022/10/31 00:07:22;;;;;;;;;;;;;;;14.27;75.92;97343.91;30002;983;1824;-58
2022/10/31 00:07:53;;;;;;;;;;;;;;;14.26;76.07;97336.81;30002;983;1877;-59
2022/10/31 00:08:24;;;;;;;;;;;;;;;14.26;75.92;97347.75;30001;983;1881;-58
2022/10/31 00:08:56;;;;;;;;;;;;;;;14.26;76.21;97340.37;30001;983;1885;-59
2022/10/31 00:09:27;;;;;;;;;;;;;;;14.25;76.32;97336.03;30001;982;1881;-58
2022/10/31 00:09:58;;;;;;;;;;;;;;;14.25;75.93;97340.66;30001;957;1911;-58
2022/10/31 00:10:29;;;;;;;;;;;;;;;14.25;76.15;97340.66;30001;982;1881;-59
2022/10/31 00:11:00;;;;;;;;;;;;;;;14.25;76.04;97341.47;30001;982;1886;-58
2022/10/31 00:11:31;;;;;;;;;;;;;;;14.25;76.13;97343.41;30001;982;1881;-60
2022/10/31 00:12:02;;;;;;;;;;;;;;;14.25;75.90;97335.22;30001;983;1885;-57
2022/10/31 00:12:33;;;;;;;;;;;;;;;14.25;75.70;97346.13;30001;983;1867;-57
2022/10/31 00:13:05;;;;;;;;;;;;;;;14.26;75.94;97342.28;30001;983;1863;-58
2022/10/31 00:13:36;;;;;;;;;;;;;;;14.25;75.50;97336.03;30001;983;1881;-58
2022/10/31 00:14:07;;;;;;;;;;;;;;;14.26;75.47;97336.81;30001;983;1885;-58
2022/10/31 00:14:38;;;;;;;;;;;;;;;14.27;75.33;97343.91;30001;983;1881;-58
2022/10/31 00:15:09;;;;;;;;;;;;;;;14.27;75.26;97332.97;30001;983;1885;-58
2022/10/31 00:15:40;;;;;;;;;;;;;;;14.26;75.18;97339.56;30001;983;1881;-58
2022/10/31 00:16:18;;;;;;;;;;;;;;;14.28;75.08;97334.59;30001;983;1886;-60
2022/10/31 00:16:49;;;;;;;;;;;;;;;14.28;75.22;97338.12;30001;983;1881;-58
2022/10/31 00:17:20;;;;;;;;;;;;;;;14.28;74.91;97335.41;30001;982;1886;-57
2022/10/31 00:17:51;;;;;;;;;;;;;;;14.28;74.81;97335.41;30001;982;1868;-69
2022/10/31 00:18:22;;;;;;;;;;;;;;;14.28;74.79;97340.87;30001;982;1877;-58
2022/10/31 00:18:56;;;;;;;;;;;;;;;14.29;74.70;97333.50;30001;982;1882;-59
2022/10/31 00:19:27;;;;;;;;;;;;;;;14.30;74.46;97340.56;30001;983;1885;-59
2022/10/31 00:19:58;;;;;;;;;;;;;;;14.29;74.55;97337.03;30001;983;1881;-59
2022/10/31 00:20:30;;;;;;;;;;;;;;;14.30;74.50;97337.84;30001;983;1885;-69
2022/10/31 00:21:01;;;;;;;;;;;;;;;14.32;74.28;97332.87;30001;983;1881;-59
2022/10/31 00:21:32;;;;;;;;;;;;;;;14.32;73.88;97341.87;30001;983;1885;-60
2022/10/31 00:22:03;;;;;;;;;;;;;;;14.33;73.77;97339.97;30001;983;1868;-59
2022/10/31 00:22:37;;;;;;;;;;;;;;;14.34;73.78;97338.84;30001;983;1877;-59
2022/10/31 00:23:09;;;;;;;;;;;;;;;14.34;74.01;97333.37;30001;983;1881;-59
2022/10/31 00:23:40;;;;;;;;;;;;;;;14.35;73.69;97329.53;30001;983;1886;-60
2022/10/31 00:24:11;;;;;;;;;;;;;;;14.34;73.54;97344.31;30001;983;1881;-58
2022/10/31 00:24:41;;;;;;;;;;;;;;;14.35;73.27;97335.00;30001;982;1886;-69
2022/10/31 00:25:13;;;;;;;;;;;;;;;14.36;73.47;97333.87;30001;982;1881;-59
2022/10/31 00:25:44;;;;;;;;;;;;;;;14.37;73.48;97338.22;30001;982;1886;-59
2022/10/31 00:26:15;;;;;;;;;;;;;;;14.36;73.12;97331.97;30001;982;1868;-58
2022/10/31 00:26:48;;;;;;;;;;;;;;;14.37;73.34;97343.69;30001;982;1877;-59
2022/10/31 00:27:19;;;;;;;;;;;;;;;14.37;73.05;97338.22;30001;983;1881;-69
2022/10/31 00:27:50;;;;;;;;;;;;;;;14.36;72.94;97339.34;30001;983;1885;-59
2022/10/31 00:28:21;;;;;;;;;;;;;;;14.36;73.23;97337.44;30001;983;1881;-58
2022/10/31 00:28:52;;;;;;;;;;;;;;;14.37;73.06;97343.69;30001;983;1885;-58
2022/10/31 00:29:23;;;;;;;;;;;;;;;14.36;72.99;97339.34;30001;983;1868;-58
2022/10/31 00:29:54;;;;;;;;;;;;;;;14.36;73.12;97337.44;30001;983;1876;-59
2022/10/31 00:30:24;;;;;;;;;;;;;;;14.36;73.21;97342.06;30001;983;1881;-58
2022/10/31 00:30:59;;;;;;;;;;;;;;;14.36;72.98;97336.62;30001;983;1885;-59
2022/10/31 00:31:30;;;;;;;;;;;;;;;14.35;72.79;97335.81;30001;982;1881;-58
2022/10/31 00:32:01;;;;;;;;;;;;;;;14.35;72.68;97340.47;30001;982;1886;-58
2022/10/31 00:32:32;;;;;;;;;;;;;;;14.35;72.95;97340.47;30001;982;1868;-58
2022/10/31 00:33:05;;;;;;;;;;;;;;;14.36;72.62;97336.62;30001;982;1864;-60
2022/10/31 00:33:37;;;;;;;;;;;;;;;14.36;72.68;97337.44;30001;982;1881;-59
2022/10/31 00:34:08;;;;;;;;;;;;;;;14.36;72.31;97331.97;30001;982;1886;-59
2022/10/31 00:34:39;;;;;;;;;;;;;;;14.37;72.37;97343.69;30001;983;1881;-58
2022/10/31 00:35:10;;;;;;;;;;;;;;;14.37;72.67;97340.97;30001;983;1872;-58
2022/10/31 00:35:41;;;;;;;;;;;;;;;14.35;72.80;97335.81;30001;964;1891;-59
2022/10/31 00:36:13;;;;;;;;;;;;;;;14.36;72.55;97336.62;30001;983;1885;-58
2022/10/31 00:36:46;;;;;;;;;;;;;;;14.35;72.53;97335.00;30001;983;1881;-59
2022/10/31 00:37:20;;;;;;;;;;;;;;;14.34;72.88;97339.66;30001;983;1872;-58
2022/10/31 00:37:52;;;;;;;;;;;;;;;14.33;72.90;97342.69;30001;983;1872;-59
2022/10/31 00:38:23;;;;;;;;;;;;;;;14.33;72.78;97337.22;30001;983;1885;-58
2022/10/31 00:38:54;;;;;;;;;;;;;;;14.31;72.84;97336.72;30001;982;1881;-59
2022/10/31 00:39:24;;;;;;;;;;;;;;;14.29;72.88;97341.69;30001;982;1885;-60
2022/10/31 00:39:55;;;;;;;;;;;;;;;14.28;72.88;97337.31;30001;982;1881;-58
2022/10/31 00:40:26;;;;;;;;;;;;;;;14.27;72.97;97333.78;30001;982;1886;-59
2022/10/31 00:40:57;;;;;;;;;;;;;;;14.26;73.51;97340.37;30001;982;1881;-59
2022/10/31 00:41:29;;;;;;;;;;;;;;;14.25;73.54;97340.66;30001;982;1873;-58
2022/10/31 00:42:00;;;;;;;;;;;;;;;14.24;73.59;97339.06;30001;982;1873;-58
2022/10/31 00:42:31;;;;;;;;;;;;;;;14.23;73.42;97340.16;30001;983;1885;-59
2022/10/31 00:43:05;;;;;;;;;;;;;;;14.22;73.32;97344.81;30001;983;1867;-60
2022/10/31 00:43:36;;;;;;;;;;;;;;;14.21;73.30;97343.19;30001;983;1876;-58
2022/10/31 00:44:07;;;;;;;;;;;;;;;14.21;73.54;97339.66;30001;983;1881;-59
2022/10/31 00:44:38;;;;;;;;;;;;;;;14.20;73.64;97336.16;30001;983;1885;-58
2022/10/31 00:45:10;;;;;;;;;;;;;;;14.21;73.64;97342.38;30001;983;1881;-60
2022/10/31 00:45:42;;;;;;;;;;;;;;;14.21;73.55;97339.66;30001;983;1885;-58
2022/10/31 00:46:13;;;;;;;;;;;;;;;14.20;73.80;97341.59;30001;983;1868;-59
2022/10/31 00:46:44;;;;;;;;;;;;;;;14.21;74.01;97339.66;30001;982;1864;-58
2022/10/31 00:47:15;;;;;;;;;;;;;;;14.20;73.92;97343.53;30001;982;1881;-58
2022/10/31 00:47:46;;;;;;;;;;;;;;;14.20;73.94;97338.06;30001;982;1886;-58
2022/10/31 00:48:17;;;;;;;;;;;;;;;14.21;74.24;97337.75;30001;982;1881;-68
2022/10/31 00:48:47;;;;;;;;;;;;;;;14.20;74.53;97338.06;30001;982;1886;-59
2022/10/31 00:49:18;;;;;;;;;;;;;;;14.20;74.77;97332.63;30001;982;1868;-69
2022/10/31 00:49:49;;;;;;;;;;;;;;;14.20;74.57;97340.81;30001;983;1876;-69
2022/10/31 00:50:20;;;;;;;;;;;;;;;14.20;75.04;97343.53;30001;983;1881;-59
2022/10/31 00:50:51;;;;;;;;;;;;;;;14.19;74.93;97342.72;30001;983;1885;-59
2022/10/31 00:51:22;;;;;;;;;;;;;;;14.20;75.08;97346.25;30001;983;1881;-58
2022/10/31 00:51:52;;;;;;;;;;;;;;;14.18;75.29;97346.56;30001;987;1885;-59
2022/10/31 00:52:23;;;;;;;;;;;;;;;14.17;75.44;97344.12;30001;983;1881;-59
2022/10/31 00:52:54;;;;;;;;;;;;;;;14.16;75.79;97337.06;30001;983;1872;-59
2022/10/31 00:53:25;;;;;;;;;;;;;;;14.16;75.77;97337.06;30001;983;1872;-57
2022/10/31 00:53:56;;;;;;;;;;;;;;;14.15;75.89;97340.91;30001;982;1886;-59
2022/10/31 00:54:27;;;;;;;;;;;;;;;14.14;75.81;97339.28;30001;982;1881;-59
2022/10/31 00:54:58;;;;;;;;;;;;;;;14.14;76.04;97344.75;30001;982;1885;-58
2022/10/31 00:55:29;;;;;;;;;;;;;;;14.13;75.76;97333.03;30001;982;1881;-58
2022/10/31 00:56:00;;;;;;;;;;;;;;;14.13;76.08;97343.13;30001;982;1886;-58
2022/10/31 00:56:31;;;;;;;;;;;;;;;14.12;76.02;97336.06;30001;968;1903;-60
2022/10/31 00:57:02;;;;;;;;;;;;;;;14.09;76.17;97338.28;30001;982;1873;-58
2022/10/31 00:57:33;;;;;;;;;;;;;;;14.08;76.33;97342.13;30001;983;1872;-60
2022/10/31 00:58:05;;;;;;;;;;;;;;;14.07;76.51;97340.50;30001;983;1885;-59
2022/10/31 00:58:37;;;;;;;;;;;;;;;14.06;76.54;97341.59;30001;983;1880;-59
2022/10/31 00:59:08;;;;;;;;;;;;;;;14.04;76.62;97335.66;30001;983;1885;-59
2022/10/31 00:59:39;;;;;;;;;;;;;;;14.02;76.85;97343.31;30001;983;1881;-58
2022/10/31 01:00:10;;;;;;;;;;;;;;;14.01;76.97;97341.72;30001;983;1872;-58
2022/10/31 01:00:41;;;;;;;;;;;;;;;14.00;76.90;97337.38;30001;983;1872;-58
2022/10/31 01:01:12;;;;;;;;;;;;;;;13.98;76.82;97328.66;30001;983;1885;-58
2022/10/31 01:01:43;;;;;;;;;;;;;;;13.98;76.91;97336.84;30001;982;1881;-58
2022/10/31 01:02:14;;;;;;;;;;;;;;;13.96;77.06;97344.53;30001;982;1873;-58
2022/10/31 01:02:45;;;;;;;;;;;;;;;13.95;77.09;97334.72;30001;982;1873;-59
2022/10/31 01:03:16;;;;;;;;;;;;;;;13.94;77.47;97335.84;30001;982;1886;-59
2022/10/31 01:03:47;;;;;;;;;;;;;;;13.93;77.34;97336.16;30001;982;1881;-59
2022/10/31 01:04:18;;;;;;;;;;;;;;;13.93;77.35;97338.88;30001;983;1885;-60
2022/10/31 01:04:49;;;;;;;;;;;;;;;13.91;77.57;97331.00;30001;983;1880;-68
2022/10/31 01:05:23;;;;;;;;;;;;;;;13.91;77.65;97336.44;30001;983;1885;-58
2022/10/31 01:06:02;;;;;;;;;;;;;;;13.90;77.87;97328.56;30001;983;1881;-59
2022/10/31 01:06:33;;;;;;;;;;;;;;;13.89;78.12;97333.22;30001;983;1872;-59
2022/10/31 01:07:04;;;;;;;;;;;;;;;13.88;78.20;97337.06;30001;983;1872;-59
2022/10/31 01:07:38;;;;;;;;;;;;;;;13.87;78.02;97338.16;30001;983;1885;-59
2022/10/31 01:08:10;;;;;;;;;;;;;;;13.87;78.39;97332.72;30001;983;1881;-59
2022/10/31 01:08:40;;;;;;;;;;;;;;;13.87;78.59;97334.63;30001;983;1872;-59
2022/10/31 01:09:12;;;;;;;;;;;;;;;13.86;78.73;97333.81;30001;966;1885;-58
2022/10/31 01:09:46;;;;;;;;;;;;;;;13.85;78.67;97337.69;30001;982;1885;-59
2022/10/31 01:10:18;;;;;;;;;;;;;;;13.85;78.29;97342.34;30001;982;1881;-58
2022/10/31 01:10:58;;;;;;;;;;;;;;;13.83;78.73;97336.38;30001;982;1886;-59
2022/10/31 01:11:29;;;;;;;;;;;;;;;13.83;78.97;97333.66;30001;983;1880;-59
2022/10/31 01:12:00;;;;;;;;;;;;;;;13.81;78.94;97333.94;30001;983;1885;-58
2022/10/31 01:12:41;;;;;;;;;;;;;;;13.82;78.93;97337.47;30001;983;1881;-59
2022/10/31 01:13:12;;;;;;;;;;;;;;;13.79;78.87;97333.44;30001;983;1885;-58
2022/10/31 01:13:43;;;;;;;;;;;;;;;13.79;78.66;97327.97;30001;983;1868;-58
2022/10/31 01:14:14;;;;;;;;;;;;;;;13.78;78.66;97337.28;30001;983;1877;-59
2022/10/31 01:14:47;;;;;;;;;;;;;;;13.78;78.70;97336.47;30001;983;1881;-58
2022/10/31 01:15:19;;;;;;;;;;;;;;;13.77;79.02;97335.66;30001;983;1872;-60
2022/10/31 01:15:53;;;;;;;;;;;;;;;13.76;79.12;97328.59;30001;983;1872;-59
2022/10/31 01:16:26;;;;;;;;;;;;;;;13.76;78.76;97336.75;30001;983;1886;-58
2022/10/31 01:16:57;;;;;;;;;;;;;;;13.75;79.06;97332.41;30001;982;1881;-59
2022/10/31 01:17:28;;;;;;;;;;;;;;;13.76;79.15;97334.03;30001;982;1873;-59
2022/10/31 01:17:59;;;;;;;;;;;;;;;13.74;78.87;97325.34;30001;982;1789;-60
2022/10/31 01:18:30;;;;;;;;;;;;;;;13.73;79.12;97330.00;30001;982;1798;-68
2022/10/31 01:19:01;;;;;;;;;;;;;;;13.74;79.23;97330.81;30001;983;1881;-59
2022/10/31 01:19:32;;;;;;;;;;;;;;;13.73;79.17;97329.19;30001;983;1872;-58
2022/10/31 01:20:04;;;;;;;;;;;;;;;13.72;79.27;97328.38;30001;983;1872;-58
2022/10/31 01:20:35;;;;;;;;;;;;;;;13.71;78.95;97325.94;30001;983;1885;-59
2022/10/31 01:21:08;;;;;;;;;;;;;;;13.71;79.03;97336.84;30001;983;1868;-59
2022/10/31 01:21:39;;;;;;;;;;;;;;;13.70;79.29;97330.59;30001;983;1877;-59
2022/10/31 01:22:10;;;;;;;;;;;;;;;13.70;79.36;97327.06;30001;983;1881;-58
2022/10/31 01:22:40;;;;;;;;;;;;;;;13.69;79.23;97334.44;30001;983;1885;-58
2022/10/31 01:23:11;;;;;;;;;;;;;;;13.67;79.30;97330.38;30001;983;1881;-59
2022/10/31 01:23:42;;;;;;;;;;;;;;;13.67;79.37;97330.38;30001;983;1886;-59
2022/10/31 01:24:13;;;;;;;;;;;;;;;13.66;79.42;97329.56;30001;982;1881;-58
2022/10/31 01:24:47;;;;;;;;;;;;;;;13.66;79.58;97329.56;30001;982;1886;-59
2022/10/31 01:25:18;;;;;;;;;;;;;;;13.66;79.49;97326.03;30001;982;1881;-69
2022/10/31 01:25:49;;;;;;;;;;;;;;;13.67;79.68;97335.84;30001;982;1886;-59
2022/10/31 01:26:21;;;;;;;;;;;;;;;13.66;79.77;97329.56;30001;982;1868;-60
2022/10/31 01:26:53;;;;;;;;;;;;;;;13.65;80.02;97327.97;30001;983;1876;-59
2022/10/31 01:27:24;;;;;;;;;;;;;;;13.65;79.70;97327.97;30001;983;1881;-59
2022/10/31 01:27:55;;;;;;;;;;;;;;;13.65;79.87;97329.88;30001;971;1865;-59
2022/10/31 01:28:26;;;;;;;;;;;;;;;13.65;80.19;97327.16;30001;983;1881;-58
2022/10/31 01:28:59;;;;;;;;;;;;;;;13.64;79.97;97329.06;30001;983;1885;-59
2022/10/31 01:29:32;;;;;;;;;;;;;;;13.64;80.21;97325.53;30001;983;1881;-59
2022/10/31 01:30:04;;;;;;;;;;;;;;;13.63;79.95;97330.19;30001;983;1885;-59
2022/10/31 01:30:34;;;;;;;;;;;;;;;13.64;80.02;97328.25;30001;983;1881;-58
2022/10/31 01:31:07;;;;;;;;;;;;;;;13.64;80.39;97328.25;30001;983;1872;-60
2022/10/31 01:31:39;;;;;;;;;;;;;;;13.63;80.15;97329.38;30001;982;1873;-58
2022/10/31 01:32:10;;;;;;;;;;;;;;;13.63;80.33;97326.66;30001;982;1885;-58
2022/10/31 01:32:41;;;;;;;;;;;;;;;13.63;80.62;97323.91;30001;982;1881;-68
2022/10/31 01:33:11;;;;;;;;;;;;;;;13.61;80.58;97329.66;30001;982;1886;-59
2022/10/31 01:33:43;;;;;;;;;;;;;;;13.60;80.64;97321.78;30001;982;1882;-59
2022/10/31 01:34:15;;;;;;;;;;;;;;;13.60;80.55;97319.06;30001;983;1885;-59
2022/10/31 01:34:46;;;;;;;;;;;;;;;13.60;80.54;97327.25;30001;983;1867;-69
2022/10/31 01:35:17;;;;;;;;;;;;;;;13.58;80.55;97322.09;30001;983;1876;-59
2022/10/31 01:35:48;;;;;;;;;;;;;;;13.59;80.60;97328.34;30001;983;1868;-58
2022/10/31 01:36:29;;;;;;;;;;;;;;;13.58;80.95;97333.00;30001;983;1863;-57
2022/10/31 01:37:01;;;;;;;;;;;;;;;13.57;81.01;97330.56;30001;983;1881;-59
2022/10/31 01:37:32;;;;;;;;;;;;;;;13.56;80.70;97335.22;30001;983;1885;-59
2022/10/31 01:38:03;;;;;;;;;;;;;;;13.56;81.04;97331.69;30001;983;1881;-59
2022/10/31 01:38:34;;;;;;;;;;;;;;;13.55;80.84;97339.06;30001;982;1885;-59
2022/10/31 01:39:06;;;;;;;;;;;;;;;13.54;81.00;97331.16;30001;982;1793;-59
2022/10/31 01:39:37;;;;;;;;;;;;;;;13.54;80.65;97337.44;30001;982;1885;-58
2022/10/31 01:40:09;;;;;;;;;;;;;;;13.52;80.63;97334.19;30001;982;1881;-60
2022/10/31 01:40:40;;;;;;;;;;;;;;;13.53;80.70;97338.53;30001;982;1886;-70
2022/10/31 01:41:12;;;;;;;;;;;;;;;13.51;80.93;97331.81;30001;982;1868;-58
2022/10/31 01:41:44;;;;;;;;;;;;;;;13.52;80.85;97333.37;30001;983;1876;-58
2022/10/31 01:42:18;;;;;;;;;;;;;;;13.50;80.78;97330.19;30001;983;1881;-59
2022/10/31 01:42:49;;;;;;;;;;;;;;;13.49;80.80;97328.56;30001;983;1884;-58
2022/10/31 01:43:20;;;;;;;;;;;;;;;13.47;80.75;97331.59;30001;983;1881;-58
2022/10/31 01:44:01;;;;;;;;;;;;;;;13.48;80.42;97337.84;30001;983;1872;-60
2022/10/31 01:44:52;;;;;;;;;;;;;;;13.46;80.76;97335.44;30001;983;1859;-69
2022/10/31 01:45:23;;;;;;;;;;;;;;;13.44;80.73;97336.84;30001;983;1868;-58
2022/10/31 01:45:54;;;;;;;;;;;;;;;13.43;80.80;97329.75;30001;982;1872;-58
2022/10/31 01:46:34;;;;;;;;;;;;;;;13.41;80.81;97332.78;30001;982;1886;-59
2022/10/31 01:47:07;;;;;;;;;;;;;;;13.41;80.93;97333.59;30001;982;1881;-59
2022/10/31 01:47:45;;;;;;;;;;;;;;;13.40;80.75;97331.97;30001;982;1886;-58
2022/10/31 01:48:19;;;;;;;;;;;;;;;13.39;81.03;97327.63;30001;982;1881;-58
2022/10/31 01:48:53;;;;;;;;;;;;;;;13.38;80.86;97328.75;30001;982;1886;-59
2022/10/31 01:49:32;;;;;;;;;;;;;;;13.38;80.79;97331.47;30001;983;1868;-59
2022/10/31 01:50:06;;;;;;;;;;;;;;;13.38;80.80;97328.75;30001;983;1863;-68
2022/10/31 01:50:38;;;;;;;;;;;;;;;13.37;81.17;97329.84;30001;983;1881;-58
2022/10/31 01:51:11;;;;;;;;;;;;;;;13.36;80.91;97328.22;30001;983;1885;-58
2022/10/31 01:51:47;;;;;;;;;;;;;;;13.35;81.17;97332.06;30001;983;1881;-59
2022/10/31 01:52:27;;;;;;;;;;;;;;;13.34;80.96;97321.47;30001;983;1885;-59
2022/10/31 01:52:58;;;;;;;;;;;;;;;13.32;81.18;97319.03;30001;983;1881;-59
2022/10/31 01:53:30;;;;;;;;;;;;;;;13.32;81.40;97324.47;30001;982;1885;-69
2022/10/31 01:54:04;;;;;;;;;;;;;;;13.31;81.60;97316.59;30001;982;1881;-58
2022/10/31 01:54:38;;;;;;;;;;;;;;;13.30;81.34;97323.97;30001;982;1886;-69
2022/10/31 01:55:11;;;;;;;;;;;;;;;13.30;81.43;97325.87;30001;982;1868;-59
2022/10/31 01:55:44;;;;;;;;;;;;;;;13.30;81.53;97323.97;30001;982;1877;-59
2022/10/31 01:56:18;;;;;;;;;;;;;;;13.30;81.84;97332.16;30001;982;1882;-60
2022/10/31 01:56:51;;;;;;;;;;;;;;;13.30;81.84;97320.44;30001;983;1885;-70
2022/10/31 01:57:22;;;;;;;;;;;;;;;13.29;81.87;97316.91;30001;983;1880;-59
2022/10/31 01:57:55;;;;;;;;;;;;;;;13.30;81.97;97320.44;30001;983;1885;-60
2022/10/31 01:58:28;;;;;;;;;;;;;;;13.29;82.29;97314.19;30001;983;1881;-59
2022/10/31 01:59:01;;;;;;;;;;;;;;;13.27;82.32;97319.13;30001;983;1885;-58
2022/10/31 01:59:34;;;;;;;;;;;;;;;13.26;82.24;97311.25;30001;983;1881;-58
2022/10/31 02:00:07;;;;;;;;;;;;;;;13.26;82.06;97320.22;30001;983;1885;-59
2022/10/31 02:00:38;;;;;;;;;;;;;;;13.25;82.17;97315.88;30001;983;1868;-59
2022/10/31 02:01:09;;;;;;;;;;;;;;;13.24;82.33;97314.25;30001;982;1877;-59
2022/10/31 02:01:40;;;;;;;;;;;;;;;13.24;82.36;97318.91;30001;982;1881;-59
2022/10/31 02:02:12;;;;;;;;;;;;;;;13.22;81.98;97319.19;30001;982;1885;-59
2022/10/31 02:02:45;;;;;;;;;;;;;;;13.21;82.40;97320.31;30001;982;1881;-58
2022/10/31 02:03:17;;;;;;;;;;;;;;;13.22;82.10;97313.75;30001;982;1886;-58
2022/10/31 02:03:49;;;;;;;;;;;;;;;13.21;82.42;97317.59;30001;982;1881;-59
2022/10/31 02:04:20;;;;;;;;;;;;;;;13.21;82.58;97306.69;30001;983;1885;-59
2022/10/31 02:04:53;;;;;;;;;;;;;;;13.22;82.54;97313.75;30001;983;1881;-58
2022/10/31 02:05:25;;;;;;;;;;;;;;;13.22;82.48;97319.19;30001;983;1885;-59
2022/10/31 02:05:57;;;;;;;;;;;;;;;13.23;82.57;97309.91;30001;983;1868;-59
2022/10/31 02:06:35;;;;;;;;;;;;;;;13.23;82.54;97315.38;30001;983;1876;-59
2022/10/31 02:07:12;;;;;;;;;;;;;;;13.23;82.23;97315.38;30001;983;1881;-59
2022/10/31 02:07:48;;;;;;;;;;;;;;;13.23;82.39;97318.09;30001;968;1900;-58
2022/10/31 02:08:27;;;;;;;;;;;;;;;13.22;82.11;97318.41;30001;983;1881;-58
2022/10/31 02:08:59;;;;;;;;;;;;;;;13.19;82.21;97308.91;30001;982;1885;-59
2022/10/31 02:09:31;;;;;;;;;;;;;;;13.18;82.48;97307.28;30001;982;1881;-59
2022/10/31 02:10:03;;;;;;;;;;;;;;;13.18;82.01;97317.37;30001;982;1885;-58
2022/10/31 02:10:36;;;;;;;;;;;;;;;13.18;82.47;97320.09;30001;982;1868;-58
2022/10/31 02:11:08;;;;;;;;;;;;;;;13.18;82.12;97314.66;30001;983;1876;-59
2022/10/31 02:11:40;;;;;;;;;;;;;;;13.17;82.27;97313.84;30001;983;1881;-59
2022/10/31 02:12:12;;;;;;;;;;;;;;;13.18;82.35;97315.47;30001;983;1885;-59
2022/10/31 02:12:44;;;;;;;;;;;;;;;13.18;82.10;97311.91;30001;983;1881;-59
2022/10/31 02:13:15;;;;;;;;;;;;;;;13.19;82.13;97319.00;30001;983;1885;-59
2022/10/31 02:13:47;;;;;;;;;;;;;;;13.18;82.16;97317.37;30001;983;1881;-58
2022/10/31 02:14:18;;;;;;;;;;;;;;;13.18;81.86;97315.47;30001;983;1877;-58
2022/10/31 02:14:49;;;;;;;;;;;;;;;13.18;81.97;97312.72;30001;983;1881;-60
2022/10/31 02:15:20;;;;;;;;;;;;;;;13.17;81.84;97316.56;30001;983;1885;-58
2022/10/31 02:15:54;;;;;;;;;;;;;;;13.19;81.91;97308.91;30001;983;1868;-59
2022/10/31 02:16:25;;;;;;;;;;;;;;;13.18;81.96;97309.19;30001;982;1877;-69
2022/10/31 02:16:56;;;;;;;;;;;;;;;13.19;81.91;97317.06;30001;982;1881;-70
2022/10/31 02:17:29;;;;;;;;;;;;;;;13.19;82.20;97314.34;30001;982;1877;-59
2022/10/31 02:18:00;;;;;;;;;;;;;;;13.19;81.89;97313.53;30001;982;1882;-69
2022/10/31 02:18:31;;;;;;;;;;;;;;;13.19;82.06;97310.81;30001;982;1886;-59
2022/10/31 02:19:04;;;;;;;;;;;;;;;13.18;81.76;97310.00;30001;983;1881;-58
2022/10/31 02:19:53;;;;;;;;;;;;;;;13.18;81.82;97309.19;30001;983;1885;-59
2022/10/31 02:20:27;;;;;;;;;;;;;;;13.17;82.08;97308.38;30001;983;1872;-58
2022/10/31 02:21:20;;;;;;;;;;;;;;;13.19;82.09;97308.91;30001;983;1872;-59
2022/10/31 02:22:00;;;;;;;;;;;;;;;13.20;81.66;97310.53;30001;983;1868;-58
2022/10/31 02:22:43;;;;;;;;;;;;;;;13.19;81.34;97308.91;30001;983;1885;-59
2022/10/31 02:23:43;;;;;;;;;;;;;;;13.19;81.40;97311.63;30001;983;1881;-58
2022/10/31 02:24:39;;;;;;;;;;;;;;;13.19;81.28;97308.91;30001;982;1881;-59
2022/10/31 02:25:36;;;;;;;;;;;;;;;13.20;81.21;97320.59;30001;982;1877;-58
2022/10/31 02:26:40;;;;;;;;;;;;;;;13.19;81.52;97316.25;30001;983;1772;-58
2022/10/31 02:27:29;;;;;;;;;;;;;;;13.17;81.21;97311.13;30001;968;1882;-58
2022/10/31 02:28:26;;;;;;;;;;;;;;;13.17;81.43;97322.00;30001;983;1876;-59
2022/10/31 02:29:08;;;;;;;;;;;;;;;13.17;81.03;97321.22;30001;959;1902;-59
2022/10/31 02:29:53;;;;;;;;;;;;;;;13.18;80.99;97311.91;30001;983;1885;-58
2022/10/31 02:30:33;;;;;;;;;;;;;;;13.19;80.63;97319.78;30001;983;1881;-58
2022/10/31 02:31:23;;;;;;;;;;;;;;;13.17;80.85;97311.13;30001;983;1886;-69
2022/10/31 02:32:14;;;;;;;;;;;;;;;13.18;80.60;97318.19;30001;982;1859;-58
2022/10/31 02:32:59;;;;;;;;;;;;;;;13.18;80.83;97310.00;30001;982;1859;-58
2022/10/31 02:33:41;;;;;;;;;;;;;;;13.17;80.67;97311.13;30001;982;1881;-58
2022/10/31 02:34:18;;;;;;;;;;;;;;;13.17;80.41;97307.59;30001;983;1885;-58
2022/10/31 02:34:56;;;;;;;;;;;;;;;13.16;80.25;97309.53;30001;983;1881;-60
2022/10/31 02:35:58;;;;;;;;;;;;;;;13.17;80.11;97310.34;30001;983;1872;-59
2022/10/31 02:36:49;;;;;;;;;;;;;;;13.17;80.11;97305.66;30001;983;1854;-58
2022/10/31 02:37:32;;;;;;;;;;;;;;;13.17;80.15;97311.13;30001;983;1881;-59
2022/10/31 02:38:12;;;;;;;;;;;;;;;13.17;79.79;97310.34;30001;983;1881;-58
2022/10/31 02:38:56;;;;;;;;;;;;;;;13.17;79.39;97311.13;30001;982;1886;-58
2022/10/31 02:39:30;;;;;;;;;;;;;;;13.16;79.62;97314.97;30001;982;1881;-58
2022/10/31 02:40:17;;;;;;;;;;;;;;;13.15;79.32;97316.06;30001;982;1886;-58
2022/10/31 02:41:20;;;;;;;;;;;;;;;13.15;79.60;97307.88;30001;982;1882;-58
2022/10/31 02:41:58;;;;;;;;;;;;;;;13.14;79.48;97314.44;30001;983;1867;-58
2022/10/31 02:42:34;;;;;;;;;;;;;;;13.12;79.49;97313.91;30001;983;1872;-58
2022/10/31 02:43:30;;;;;;;;;;;;;;;13.12;79.39;97316.66;30001;983;1872;-58
2022/10/31 02:44:11;;;;;;;;;;;;;;;13.10;79.31;97318.84;30001;983;1868;-58
2022/10/31 02:44:55;;;;;;;;;;;;;;;13.08;79.60;97316.44;30001;983;1885;-57
2022/10/31 02:45:29;;;;;;;;;;;;;;;13.05;80.08;97317.03;30001;982;1881;-58
2022/10/31 02:46:14;;;;;;;;;;;;;;;13.04;80.14;97317.31;30001;982;1885;-58
2022/10/31 02:46:49;;;;;;;;;;;;;;;13.03;80.69;97321.16;30001;982;1881;-57
2022/10/31 02:47:25;;;;;;;;;;;;;;;13.01;80.43;97323.38;30001;982;1886;-58
2022/10/31 02:48:00;;;;;;;;;;;;;;;13.00;80.52;97319.84;30001;976;1868;-58
2022/10/31 02:48:35;;;;;;;;;;;;;;;13.01;80.79;97315.19;30001;982;1864;-58
2022/10/31 02:49:10;;;;;;;;;;;;;;;13.00;80.78;97316.28;30001;983;1881;-58
2022/10/31 02:49:54;;;;;;;;;;;;;;;13.01;80.57;97317.91;30001;983;1885;-58
2022/10/31 02:50:28;;;;;;;;;;;;;;;13.00;80.83;97317.09;30001;983;1881;-58
2022/10/31 02:51:01;;;;;;;;;;;;;;;13.01;80.46;97312.47;30001;983;1885;-58
2022/10/31 02:51:31;;;;;;;;;;;;;;;13.00;80.49;97313.56;30001;983;1881;-58
2022/10/31 02:52:13;;;;;;;;;;;;;;;12.98;80.34;97305.69;30001;983;1885;-58
2022/10/31 02:52:43;;;;;;;;;;;;;;;12.97;80.73;97311.44;30001;983;1881;-59
2022/10/31 02:53:15;;;;;;;;;;;;;;;12.97;80.61;97311.44;30001;982;1886;-58
2022/10/31 02:53:46;;;;;;;;;;;;;;;12.96;80.90;97309.81;30001;982;1868;-57
2022/10/31 02:54:25;;;;;;;;;;;;;;;12.95;80.65;97313.66;30001;982;1877;-58
2022/10/31 02:54:57;;;;;;;;;;;;;;;12.95;80.41;97316.38;30001;982;1881;-58
2022/10/31 02:55:47;;;;;;;;;;;;;;;12.94;80.01;97307.41;30001;982;1886;-59
2022/10/31 02:56:19;;;;;;;;;;;;;;;12.95;79.79;97314.47;30001;982;1877;-58
2022/10/31 02:56:53;;;;;;;;;;;;;;;12.95;79.29;97314.47;30001;986;1885;-59
2022/10/31 02:57:25;;;;;;;;;;;;;;;12.98;79.32;97307.59;30001;983;1881;-59
2022/10/31 02:58:06;;;;;;;;;;;;;;;12.96;79.32;97313.34;30001;983;1885;-58
2022/10/31 02:58:44;;;;;;;;;;;;;;;12.98;79.02;97313.06;30001;983;1868;-58
2022/10/31 02:59:17;;;;;;;;;;;;;;;12.98;79.00;97310.34;30001;983;1877;-58
2022/10/31 02:59:48;;;;;;;;;;;;;;;12.98;79.09;97313.06;30001;983;1881;-59
2022/10/31 03:00:20;;;;;;;;;;;;;;;12.99;78.74;97320.13;30001;983;1872;-59
2022/10/31 03:01:09;;;;;;;;;;;;;;;12.98;78.71;97307.59;30001;982;1872;-58
2022/10/31 03:02:05;;;;;;;;;;;;;;;13.00;78.81;97308.13;30001;982;1877;-57